Aérodrome :
LOGIN :

S'inscrire | Disclaimer

   EN    FR    IT 

 










Légende :    VFR   VFR Marginal   IFR   IFR Intensif   IFR Très Intensif
Visi : 
Plafond : 
>= 8 km
>= 3000ft
5 à 8 km
1000 à 3000 ft
1500m à 5 km
500 à 1000 ft
800 à 1500m
200 à 500 ft
< 800m
< 200 ft
Symboles :   Orages  Brouillard  Fortes neiges  Fortes précipitations  Vent > 20 kt
SIGMETs :   Divers  Orages  Givrage  Turbulence  Onde Orograph.  Cendres Volcan.






- Altitude de l'aérodrome : 266 ft
- Code IATA : NCL


EGNT - Newcastle

DERNIER METAR :
  • 031620Z 35005KT 7000 VCSH BKN008 03/01 Q0982

METARs EXPIRÉS :
  • 031550Z 01004KT 7000 VCSH BKN008 03/01 Q0983
  • 031520Z 01002KT 7000 -RA BKN012 04/02 Q0983
  • 031450Z 00000KT 9999 BKN012 04/02 Q0983
  • 031420Z VRB01KT 9999 BKN012 04/02 Q0984
  • 031350Z 00000KT 9999 BKN010 04/02 Q0984

TAF AMD TAF EGNT
Valide du 03 à 12h jusqu'au 04 à 12h UTC


031231Z 0312/0412 18005KT 9999 SCT025
BECMG 0312/0315 36010KT BKN008
TEMPO 0315/0324 4000 RA BKN005
BECMG 0321/0324 SCT025
TEMPO 0400/0412 8000 -RA BKN014
PROB30
TEMPO 0400/0412 01015G25KT 3000 +RA BKN006
ATIS : +44 191 214 3400



MET'MAP, la Météo Aéronautique d'un coup d'oeil ! - Copyright ORBIFLY Décembre 2007 - Disclaimer

ORBIFLY MET'MAP TEAM :

Programmation & Développement : Alexandra Zaïnal
Sur une idée originale de : Baudouin d'Aumeries
Assistance à la programmation : Marc-Olivier Méhu
Soutien technique & logistique : Manuel Goepfert

Contact : metmap@orbifly.com




SOURCES & CREDITS :

   NOAA